createdAt,value
2023-04-08T00:00:58.139Z,22.00
2023-04-08T00:06:02.696Z,23.80
2023-04-08T00:11:05.764Z,26.00
2023-04-08T00:16:08.163Z,31.70
2023-04-08T00:21:10.785Z,30.70
2023-04-08T00:26:13.116Z,28.90
2023-04-08T00:31:16.602Z,25.10
2023-04-08T00:36:19.234Z,29.30
2023-04-08T00:41:21.929Z,28.00
2023-04-08T00:46:24.776Z,26.80
2023-04-08T00:51:39.080Z,24.60
2023-04-08T00:56:43.644Z,22.50
2023-04-08T01:02:06.808Z,21.60
2023-04-08T01:07:47.970Z,20.20
2023-04-08T01:12:56.555Z,19.20
2023-04-08T01:18:00.801Z,21.60
2023-04-08T01:23:18.561Z,19.90
2023-04-08T01:28:23.878Z,20.70
2023-04-08T01:33:29.446Z,21.10
2023-04-08T01:38:34.102Z,19.10
2023-04-08T01:43:39.600Z,17.70
2023-04-08T01:48:42.945Z,15.10
2023-04-08T01:53:45.801Z,11.30
2023-04-08T01:58:54.856Z,14.70
2023-04-08T02:04:00.697Z,16.20
2023-04-08T02:09:04.327Z,18.10
2023-04-08T02:14:06.668Z,19.90
2023-04-08T02:19:18.914Z,16.50
2023-04-08T02:24:22.313Z,16.00
2023-04-08T02:29:26.487Z,15.80
2023-04-08T02:34:30.894Z,15.80
2023-04-08T02:39:33.534Z,16.40
2023-04-08T02:44:36.483Z,16.50
2023-04-08T02:49:38.790Z,17.10
2023-04-08T02:54:41.941Z,17.10
2023-04-08T02:59:44.368Z,18.50
2023-04-08T03:04:50.607Z,19.80
2023-04-08T03:09:55.158Z,21.20
2023-04-08T03:14:58.073Z,19.30
2023-04-08T03:20:01.857Z,20.30
2023-04-08T03:25:04.575Z,21.50
2023-04-08T03:30:09.170Z,22.00
2023-04-08T03:35:11.830Z,19.70
2023-04-08T03:40:14.159Z,19.40
2023-04-08T03:45:17.363Z,18.70
2023-04-08T03:50:26.475Z,23.20
2023-04-08T03:55:29.207Z,21.70
2023-04-08T04:00:33.806Z,22.80
2023-04-08T04:05:38.112Z,21.30
2023-04-08T04:10:41.138Z,19.60
2023-04-08T04:15:43.951Z,19.80
2023-04-08T04:20:46.350Z,18.60
2023-04-08T04:25:49.169Z,17.90
2023-04-08T04:30:51.454Z,18.60
2023-04-08T04:35:54.511Z,17.00
2023-04-08T04:40:59.008Z,18.60
2023-04-08T04:46:02.488Z,17.50
2023-04-08T04:51:04.742Z,18.90
2023-04-08T04:56:08.315Z,18.20
2023-04-08T05:01:10.652Z,16.60
2023-04-08T05:06:14.152Z,15.50
2023-04-08T05:11:18.453Z,16.70
2023-04-08T05:16:21.105Z,17.50
2023-04-08T05:21:24.072Z,15.90
2023-04-08T05:26:28.140Z,18.50
2023-04-08T05:31:30.516Z,18.80
2023-04-08T05:36:33.528Z,17.20
2023-04-08T05:41:35.619Z,18.60
2023-04-08T05:46:38.882Z,16.40
2023-04-08T05:51:41.160Z,15.20
2023-04-08T05:56:46.472Z,17.00
2023-04-08T06:01:48.805Z,19.00
2023-04-08T06:06:51.485Z,15.30
2023-04-08T06:11:54.173Z,16.10
2023-04-08T06:16:57.761Z,14.70
2023-04-08T06:22:00.023Z,16.40
2023-04-08T06:27:03.417Z,16.50
2023-04-08T06:32:06.534Z,16.70
2023-04-08T06:37:09.204Z,17.90
2023-04-08T06:42:11.401Z,14.70
2023-04-08T06:47:21.693Z,15.90
2023-04-08T06:52:24.499Z,14.30
2023-04-08T06:57:30.122Z,13.80
2023-04-08T07:02:33.035Z,14.70
2023-04-08T07:07:36.831Z,14.90
2023-04-08T07:12:39.322Z,13.50
2023-04-08T07:17:42.973Z,13.60
2023-04-08T07:22:45.446Z,13.80
2023-04-08T07:27:48.014Z,15.10
2023-04-08T07:32:50.954Z,13.40
2023-04-08T07:37:53.914Z,14.80
2023-04-08T07:42:56.647Z,13.20
2023-04-08T07:47:59.040Z,14.70
2023-04-08T07:53:01.266Z,13.80
2023-04-08T07:58:03.947Z,12.70
2023-04-08T08:03:07.340Z,11.80
2023-04-08T08:08:14.094Z,11.30
2023-04-08T08:13:25.749Z,9.80
2023-04-08T08:18:40.220Z,9.80
2023-04-08T08:23:42.918Z,11.70
2023-04-08T08:28:45.400Z,9.60
2023-04-08T08:33:48.425Z,9.10
2023-04-08T08:38:55.362Z,9.90
2023-04-08T08:43:57.404Z,9.70
2023-04-08T08:49:13.245Z,7.60
2023-04-08T08:54:16.197Z,7.80
2023-04-08T08:59:18.763Z,8.90
2023-04-08T09:09:51.724Z,9.20
2023-04-08T09:15:11.025Z,8.90
2023-04-08T09:20:16.470Z,8.80
2023-04-08T09:25:29.546Z,9.80
2023-04-08T09:30:38.734Z,9.00
2023-04-08T09:35:44.382Z,9.00
2023-04-08T09:41:41.751Z,8.70
2023-04-08T09:47:45.018Z,9.00
2023-04-08T09:53:34.331Z,9.70
2023-04-08T10:38:20.333Z,11.40
2023-04-08T10:43:24.205Z,12.10
2023-04-08T10:48:26.884Z,10.60
2023-04-08T10:53:31.092Z,11.40
2023-04-08T10:58:34.653Z,9.20
2023-04-08T11:03:37.958Z,9.80
2023-04-08T11:08:40.904Z,9.50
2023-04-08T11:13:52.592Z,9.60
2023-04-08T11:18:56.943Z,8.60
2023-04-08T11:23:59.249Z,8.80
2023-04-08T11:29:02.704Z,9.80
2023-04-08T11:34:04.558Z,9.20
2023-04-08T11:39:08.843Z,8.50
2023-04-08T11:44:11.512Z,7.50
2023-04-08T11:49:13.742Z,8.20
2023-04-08T11:54:27.769Z,9.00
2023-04-08T11:59:30.097Z,8.70
2023-04-08T12:04:32.447Z,7.90
2023-04-08T12:09:35.086Z,9.90
2023-04-08T12:14:37.870Z,11.70
2023-04-08T12:19:41.184Z,11.30
2023-04-08T12:24:43.160Z,12.70
2023-04-08T12:29:46.292Z,14.40
2023-04-08T12:34:48.215Z,13.50
2023-04-08T12:39:50.551Z,14.50
2023-04-08T12:44:53.222Z,12.70
2023-04-08T12:49:55.754Z,12.20
2023-04-08T12:54:57.942Z,12.10
2023-04-08T13:00:00.160Z,11.60
2023-04-08T13:05:02.536Z,13.00
2023-04-08T13:10:07.076Z,13.10
2023-04-08T13:15:10.362Z,14.70
2023-04-08T13:20:12.766Z,14.00
2023-04-08T13:25:14.659Z,14.70
2023-04-08T13:30:16.857Z,14.30
2023-04-08T13:35:19.410Z,15.70
2023-04-08T13:40:22.282Z,13.30
2023-04-08T13:45:25.329Z,12.40
2023-04-08T13:50:27.429Z,13.00
2023-04-08T13:55:29.385Z,14.10
2023-04-08T14:00:32.995Z,13.30
2023-04-08T14:05:34.938Z,13.50
2023-04-08T14:10:39.196Z,14.90
2023-04-08T14:15:42.197Z,16.00
2023-04-08T14:20:45.221Z,18.70
2023-04-08T14:25:47.697Z,18.80
2023-04-08T14:30:51.245Z,16.10
2023-04-08T14:35:53.876Z,17.40
2023-04-08T14:40:56.519Z,19.70
2023-04-08T14:45:58.421Z,20.50
2023-04-08T14:51:00.645Z,22.20
2023-04-08T14:56:02.618Z,22.60
2023-04-08T15:01:05.272Z,21.20
2023-04-08T15:06:08.265Z,18.30
2023-04-08T15:11:10.955Z,21.20
2023-04-08T15:16:13.281Z,21.70
2023-04-08T15:21:16.679Z,21.20
2023-04-08T15:26:18.773Z,22.80
2023-04-08T15:31:21.294Z,23.70
2023-04-08T15:36:23.476Z,19.70
2023-04-08T15:41:26.367Z,19.40
2023-04-08T15:46:28.283Z,18.50
2023-04-08T15:51:30.307Z,20.10
2023-04-08T15:56:33.709Z,21.00
2023-04-08T16:01:36.296Z,20.80
2023-04-08T16:06:38.456Z,20.40
2023-04-08T16:11:41.822Z,20.80
2023-04-08T16:16:43.847Z,22.50
2023-04-08T16:21:46.461Z,23.80
2023-04-08T16:26:48.409Z,23.60
2023-04-08T16:31:53.181Z,44.40
2023-04-08T16:36:56.873Z,26.80
2023-04-08T16:42:01.090Z,24.80
2023-04-08T16:47:03.169Z,24.40
2023-04-08T16:52:06.242Z,26.00
2023-04-08T16:57:08.431Z,24.40
2023-04-08T17:02:12.696Z,29.50
2023-04-08T17:07:16.127Z,26.20
2023-04-08T17:12:18.371Z,30.60
2023-04-08T17:17:21.043Z,30.60
2023-04-08T17:22:23.127Z,30.20
2023-04-08T17:27:25.034Z,33.10
2023-04-08T17:32:30.174Z,32.40
2023-04-08T17:37:32.045Z,32.00
2023-04-08T17:42:33.916Z,32.80
2023-04-08T17:47:36.156Z,33.60
2023-04-08T17:52:38.240Z,30.60
2023-04-08T17:57:40.177Z,35.30
2023-04-08T18:02:42.926Z,32.00
2023-04-08T18:07:45.462Z,29.00
2023-04-08T18:12:48.986Z,31.10
2023-04-08T18:17:51.448Z,31.40
2023-04-08T18:22:53.920Z,33.70
2023-04-08T18:27:55.910Z,30.40
2023-04-08T18:32:57.863Z,32.80
2023-04-08T18:37:59.909Z,31.30
2023-04-08T18:43:05.653Z,32.60
2023-04-08T18:48:09.528Z,33.70
2023-04-08T18:53:12.536Z,30.10
2023-04-08T18:58:14.724Z,29.40
2023-04-08T19:03:17.492Z,27.10
2023-04-08T19:08:19.502Z,30.00
2023-04-08T19:13:23.534Z,26.80
2023-04-08T19:18:26.096Z,30.30
2023-04-08T19:23:28.807Z,27.10
2023-04-08T19:28:32.414Z,27.60
2023-04-08T19:33:34.375Z,28.80
2023-04-08T19:38:36.343Z,31.10
2023-04-08T19:43:38.477Z,33.30
2023-04-08T19:48:40.507Z,33.80
2023-04-08T19:53:43.114Z,35.00
2023-04-08T19:58:45.041Z,34.20
2023-04-08T20:03:50.539Z,33.50
2023-04-08T20:08:53.667Z,35.40
2023-04-08T20:13:56.513Z,33.10
2023-04-08T20:18:58.588Z,33.00
2023-04-08T20:24:01.212Z,33.50
2023-04-08T20:29:03.144Z,32.40
2023-04-08T20:34:05.203Z,31.40
2023-04-08T20:39:10.821Z,33.10
2023-04-08T20:44:13.280Z,31.30
2023-04-08T20:49:18.771Z,36.80
2023-04-08T20:54:21.828Z,44.40
2023-04-08T20:59:23.752Z,36.10
2023-04-08T21:04:25.967Z,35.90
2023-04-08T21:09:28.621Z,34.10
2023-04-08T21:14:38.161Z,32.80
2023-04-08T21:19:40.237Z,33.20
2023-04-08T21:24:43.173Z,38.40
2023-04-08T21:29:45.287Z,36.70
2023-04-08T21:34:56.735Z,36.20
2023-04-08T21:39:58.679Z,36.70
2023-04-08T21:45:02.265Z,39.30
2023-04-08T21:50:08.161Z,50.10
2023-04-08T21:55:30.567Z,53.20
2023-04-08T22:00:32.559Z,49.20
2023-04-08T22:05:36.079Z,47.80
2023-04-08T22:10:38.171Z,45.20
2023-04-08T22:15:40.742Z,39.60
2023-04-08T22:20:43.317Z,37.20
2023-04-08T22:25:51.934Z,35.30
2023-04-08T22:30:55.416Z,30.90
2023-04-08T22:35:57.824Z,35.60
2023-04-08T22:41:00.893Z,38.50
2023-04-08T22:46:03.186Z,39.50
2023-04-08T22:51:05.548Z,34.50
2023-04-08T22:56:07.794Z,29.80
2023-04-08T23:01:18.590Z,27.70
2023-04-08T23:06:20.640Z,26.40
2023-04-08T23:11:42.467Z,29.50
2023-04-08T23:16:45.536Z,28.10
2023-04-08T23:21:47.525Z,26.40
2023-04-08T23:26:50.273Z,26.00
2023-04-08T23:31:54.473Z,26.60
2023-04-08T23:36:56.414Z,27.90
2023-04-08T23:41:58.878Z,30.90
2023-04-08T23:47:02.063Z,30.00
2023-04-08T23:52:06.319Z,26.80
2023-04-08T23:57:08.363Z,31.40
